Time;durP1;ratioP1;P1;durP2;ratioP2;P2;SDS_P1;SDS_P2;PMS_P1;PMS_P2;Temp;Humidity;BMP_temperature;BMP_pressure;BME280_temperature;BME280_humidity;BME280_pressure;Samples;Min_cycle;Max_cycle;Signal;HPM_P1;HPM_P2
2021/01/06 00:01:18;;;;;;;13.48;7.22;;;3.40;90.40;;;;;;4979915;28;20038;-54
2021/01/06 00:03:47;;;;;;;10.35;5.95;;;3.40;90.30;;;;;;4982336;28;20035;-54
2021/01/06 00:06:14;;;;;;;10.98;6.22;;;3.40;90.40;;;;;;4982783;28;20113;-51
2021/01/06 00:08:41;;;;;;;16.60;6.82;;;3.40;90.40;;;;;;4977068;28;21529;-50
2021/01/06 00:11:08;;;;;;;11.27;7.18;;;3.40;90.20;;;;;;4977309;28;20034;-53
2021/01/06 00:13:35;;;;;;;11.95;6.63;;;3.40;90.20;;;;;;4980546;28;20447;-53
2021/01/06 00:16:00;;;;;;;13.43;6.85;;;3.40;90.20;;;;;;4977672;28;20050;-51
2021/01/06 00:18:26;;;;;;;15.57;6.45;;;3.30;90.30;;;;;;4980579;28;20074;-50
2021/01/06 00:20:53;;;;;;;11.98;6.53;;;3.30;90.20;;;;;;4980170;28;20039;-48
2021/01/06 00:23:19;;;;;;;12.30;6.75;;;3.30;90.60;;;;;;4985041;28;20692;-54
2021/01/06 00:25:44;;;;;;;13.35;6.38;;;3.30;90.30;;;;;;4971327;28;20047;-53
2021/01/06 00:28:13;;;;;;;13.30;6.53;;;3.30;90.30;;;;;;4978093;28;20050;-55
2021/01/06 00:30:47;;;;;;;10.93;6.10;;;3.20;90.70;;;;;;4976190;28;20039;-55
2021/01/06 00:33:20;;;;;;;11.23;6.45;;;3.20;90.60;;;;;;4977738;28;20042;-54
2021/01/06 00:35:54;;;;;;;9.55;5.97;;;3.20;90.70;;;;;;4962530;28;20043;-55
2021/01/06 00:38:25;;;;;;;11.38;6.18;;;3.40;90.00;;;;;;4981411;28;20043;-51
2021/01/06 00:40:50;;;;;;;9.75;5.32;;;3.20;90.40;;;;;;4969990;28;20050;-54
2021/01/06 00:43:18;;;;;;;11.80;7.00;;;3.30;90.40;;;;;;4979097;28;20037;-53
2021/01/06 00:45:48;;;;;;;12.43;6.63;;;3.40;89.70;;;;;;4978278;28;20042;-54
2021/01/06 00:48:14;;;;;;;10.40;5.80;;;3.30;90.30;;;;;;4978510;28;20054;-52
2021/01/06 00:50:40;;;;;;;13.48;6.85;;;3.30;90.20;;;;;;4976353;28;20776;-53
2021/01/06 00:53:15;;;;;;;10.88;6.60;;;3.30;90.20;;;;;;4976470;28;20073;-54
2021/01/06 00:55:42;;;;;;;12.23;6.55;;;3.20;90.30;;;;;;4975303;28;20051;-49
2021/01/06 00:58:09;;;;;;;12.00;6.43;;;3.30;90.20;;;;;;4970059;28;20054;-50
2021/01/06 01:00:34;;;;;;;11.02;6.05;;;3.20;90.60;;;;;;4977864;28;20050;-50
2021/01/06 01:03:00;;;;;;;13.88;6.72;;;3.40;90.00;;;;;;4972563;28;20133;-52
2021/01/06 01:05:31;;;;;;;12.93;6.38;;;3.30;90.10;;;;;;4976473;28;20290;-52
2021/01/06 01:08:00;;;;;;;13.98;6.70;;;3.20;90.70;;;;;;4979134;28;20038;-52
2021/01/06 01:10:36;;;;;;;11.13;6.32;;;3.20;90.50;;;;;;4973636;28;20094;-53
2021/01/06 01:13:15;;;;;;;10.38;6.57;;;3.20;90.50;;;;;;4968251;28;20031;-53
2021/01/06 01:15:42;;;;;;;14.20;7.00;;;3.20;90.50;;;;;;4976536;28;20081;-54
2021/01/06 01:18:12;;;;;;;10.52;6.30;;;3.10;90.60;;;;;;4976279;28;20099;-49
2021/01/06 01:20:44;;;;;;;13.32;6.88;;;3.20;90.70;;;;;;4978748;28;20045;-52
2021/01/06 01:23:12;;;;;;;12.15;7.13;;;3.20;90.50;;;;;;4974071;28;20146;-51
2021/01/06 01:25:40;;;;;;;11.27;6.63;;;3.20;90.60;;;;;;4974777;28;20047;-54
2021/01/06 01:28:08;;;;;;;12.05;7.07;;;3.20;90.60;;;;;;4976367;28;20043;-55
2021/01/06 01:30:34;;;;;;;13.05;6.63;;;3.10;90.70;;;;;;4974218;28;20105;-54
2021/01/06 01:33:00;;;;;;;14.52;6.60;;;3.20;90.40;;;;;;4976475;28;20031;-51
2021/01/06 01:35:28;;;;;;;13.30;7.25;;;3.20;90.60;;;;;;4975079;28;20400;-48
2021/01/06 01:37:57;;;;;;;13.70;7.13;;;3.20;90.70;;;;;;4973490;28;20082;-52
2021/01/06 01:40:34;;;;;;;12.43;7.32;;;3.20;90.70;;;;;;4974177;28;20376;-53
2021/01/06 01:43:14;;;;;;;11.90;6.60;;;3.10;90.70;;;;;;4975688;28;20041;-49
2021/01/06 01:46:01;;;;;;;13.63;6.68;;;3.10;90.80;;;;;;4969967;28;20054;-52
2021/01/06 01:48:36;;;;;;;13.88;7.07;;;3.20;90.70;;;;;;4978430;28;20038;-51
2021/01/06 01:51:25;;;;;;;14.68;6.85;;;3.10;90.90;;;;;;4973367;28;20137;-55
2021/01/06 01:54:01;;;;;;;12.02;6.40;;;3.10;90.90;;;;;;4947510;28;20046;-52
2021/01/06 01:56:38;;;;;;;13.57;6.75;;;3.10;90.90;;;;;;4976146;28;20046;-53
2021/01/06 01:59:08;;;;;;;13.63;7.05;;;3.20;90.70;;;;;;4972803;28;20393;-54
2021/01/06 02:01:35;;;;;;;12.20;6.95;;;3.20;90.50;;;;;;4964262;28;20077;-51
2021/01/06 02:04:12;;;;;;;13.20;6.90;;;3.20;90.70;;;;;;4971266;28;20050;-53
2021/01/06 02:07:02;;;;;;;11.15;6.32;;;3.20;90.60;;;;;;4969007;28;20057;-54
2021/01/06 02:09:48;;;;;;;13.75;7.35;;;3.10;90.80;;;;;;4977381;28;20049;-54
2021/01/06 02:12:36;;;;;;;12.40;6.40;;;3.10;91.00;;;;;;4985251;28;20039;-50
2021/01/06 02:15:31;;;;;;;11.25;6.25;;;3.20;90.70;;;;;;4975929;28;20066;-52
2021/01/06 02:17:58;;;;;;;11.85;6.32;;;3.10;90.50;;;;;;4940340;28;20519;-52
2021/01/06 02:20:26;;;;;;;14.38;6.95;;;3.10;90.80;;;;;;4972886;28;20124;-51
2021/01/06 02:22:55;;;;;;;12.77;7.07;;;3.10;90.90;;;;;;4973870;28;20070;-51
2021/01/06 02:25:23;;;;;;;12.93;6.95;;;3.10;90.70;;;;;;4974375;28;20095;-49
2021/01/06 02:27:50;;;;;;;11.70;5.95;;;3.20;90.50;;;;;;4972268;28;20105;-51
2021/01/06 02:30:18;;;;;;;11.40;6.30;;;3.10;90.60;;;;;;4975160;28;20034;-51
2021/01/06 02:32:50;;;;;;;12.88;7.05;;;3.20;90.50;;;;;;4957905;28;20555;-54
2021/01/06 02:35:18;;;;;;;11.95;6.53;;;3.10;90.60;;;;;;4975458;28;20039;-52
2021/01/06 02:37:43;;;;;;;16.70;7.25;;;3.10;90.70;;;;;;4975699;28;20065;-54
2021/01/06 02:40:10;;;;;;;15.15;7.45;;;3.10;90.70;;;;;;4971470;28;20117;-53
2021/01/06 02:42:38;;;;;;;13.07;6.72;;;3.20;90.50;;;;;;4972047;28;20038;-54
2021/01/06 02:45:12;;;;;;;13.25;7.07;;;3.10;90.80;;;;;;4973955;28;20049;-54
2021/01/06 02:47:38;;;;;;;12.13;7.20;;;3.10;90.80;;;;;;4971574;28;20051;-54
2021/01/06 02:50:06;;;;;;;13.85;7.05;;;3.10;90.80;;;;;;4971417;28;20045;-54
2021/01/06 02:52:34;;;;;;;13.52;6.97;;;3.00;90.60;;;;;;4973869;28;20046;-52
2021/01/06 02:55:08;;;;;;;13.50;7.20;;;3.00;90.70;;;;;;4973575;28;20034;-52
2021/01/06 02:57:35;;;;;;;13.35;6.50;;;3.10;90.40;;;;;;4972899;28;20062;-52
2021/01/06 03:00:05;;;;;;;12.27;6.22;;;3.00;90.80;;;;;;4972838;28;20475;-53
2021/01/06 03:02:31;;;;;;;12.57;6.53;;;3.10;90.30;;;;;;4987910;28;20105;-52
2021/01/06 03:05:03;;;;;;;11.30;6.05;;;3.10;90.50;;;;;;4977406;28;20043;-51
2021/01/06 03:07:29;;;;;;;13.35;6.40;;;3.10;90.40;;;;;;4977662;28;20031;-53
2021/01/06 03:09:55;;;;;;;13.95;6.47;;;3.20;90.10;;;;;;4975352;28;20054;-53
2021/01/06 03:12:30;;;;;;;14.05;6.40;;;3.10;90.60;;;;;;4975348;28;20066;-48
2021/01/06 03:14:56;;;;;;;14.13;7.13;;;3.10;90.60;;;;;;4976797;28;20046;-55
2021/01/06 03:17:23;;;;;;;14.48;6.65;;;3.00;90.70;;;;;;4975606;28;20446;-54
2021/01/06 03:19:54;;;;;;;10.68;5.20;;;3.10;90.70;;;;;;4976639;28;20066;-53
2021/01/06 03:22:23;;;;;;;11.93;6.00;;;3.00;90.70;;;;;;4973948;28;20119;-52
2021/01/06 03:25:14;;;;;;;11.65;6.13;;;3.00;90.60;;;;;;4976138;28;20043;-51
2021/01/06 03:27:44;;;;;;;12.15;5.45;;;3.00;91.00;;;;;;4959097;28;20035;-54
2021/01/06 03:30:19;;;;;;;14.05;6.50;;;3.10;90.70;;;;;;4975157;28;20577;-54
2021/01/06 03:33:16;;;;;;;13.45;6.63;;;3.10;90.40;;;;;;4975335;28;20170;-51
2021/01/06 03:35:45;;;;;;;13.82;6.38;;;3.00;90.80;;;;;;4973487;28;20069;-54
2021/01/06 03:38:16;;;;;;;13.98;7.20;;;2.90;91.00;;;;;;4975157;28;20046;-52
2021/01/06 03:40:48;;;;;;;12.80;6.40;;;3.00;90.80;;;;;;4973869;28;20105;-50
2021/01/06 03:43:17;;;;;;;14.90;7.38;;;3.00;90.70;;;;;;4969066;28;20042;-51
2021/01/06 03:45:48;;;;;;;11.50;6.65;;;3.00;90.70;;;;;;4973488;28;20046;-53
2021/01/06 03:48:26;;;;;;;11.57;6.28;;;3.00;90.70;;;;;;4974871;28;20428;-51
2021/01/06 03:50:56;;;;;;;12.43;6.28;;;3.00;90.60;;;;;;4972217;28;20415;-53
2021/01/06 03:53:33;;;;;;;16.17;6.40;;;3.00;90.70;;;;;;4973397;28;20042;-50
2021/01/06 03:56:24;;;;;;;10.73;6.15;;;3.00;90.70;;;;;;4975223;28;20043;-51
2021/01/06 03:58:53;;;;;;;14.15;7.25;;;3.00;90.60;;;;;;4973699;28;20527;-50
2021/01/06 04:01:39;;;;;;;13.40;7.10;;;3.00;90.80;;;;;;4975320;28;20078;-51
2021/01/06 04:04:24;;;;;;;13.38;6.05;;;3.00;90.70;;;;;;4989524;28;20046;-51
2021/01/06 04:06:54;;;;;;;16.08;7.38;;;3.00;90.70;;;;;;4975126;28;20050;-52
2021/01/06 04:09:39;;;;;;;15.88;7.47;;;3.00;90.80;;;;;;4975451;28;20043;-52
2021/01/06 04:12:14;;;;;;;15.43;7.80;;;2.90;91.10;;;;;;4989650;28;20046;-50
2021/01/06 04:14:40;;;;;;;;;;;3.00;91.00;;;;;;4976089;28;20039;-54
2021/01/06 04:17:28;;;;;;;13.45;6.57;;;2.90;91.10;;;;;;4974623;28;19921;-52
2021/01/06 04:20:31;;;;;;;15.05;7.40;;;2.90;91.10;;;;;;4966470;28;20140;-54
2021/01/06 04:23:01;;;;;;;16.10;8.07;;;2.90;91.20;;;;;;4971068;28;20577;-52
2021/01/06 04:25:33;;;;;;;13.38;7.25;;;2.90;91.10;;;;;;4961636;28;20046;-53
2021/01/06 04:28:02;;;;;;;13.05;7.13;;;2.90;91.20;;;;;;4974925;28;20047;-48
2021/01/06 04:30:34;;;;;;;12.52;7.28;;;3.10;90.70;;;;;;4974679;28;20747;-50
2021/01/06 04:33:02;;;;;;;13.98;7.32;;;3.00;90.90;;;;;;4970699;28;20459;-51
2021/01/06 04:35:30;;;;;;;14.23;7.88;;;3.00;91.00;;;;;;4974240;28;20042;-52
2021/01/06 04:37:59;;;;;;;18.42;8.05;;;3.00;91.00;;;;;;4973759;28;20046;-51
2021/01/06 04:40:33;;;;;;;15.38;7.40;;;3.10;90.60;;;;;;4974944;28;20043;-54
2021/01/06 04:43:19;;;;;;;13.15;7.32;;;3.00;90.80;;;;;;4987956;28;20050;-54
2021/01/06 04:46:02;;;;;;;14.38;7.72;;;3.00;91.00;;;;;;4974332;28;20507;-51
2021/01/06 04:49:00;;;;;;;13.20;7.72;;;3.00;90.90;;;;;;4974211;28;20079;-49
2021/01/06 04:52:01;;;;;;;14.30;7.72;;;3.10;90.60;;;;;;4974664;28;20522;-48
2021/01/06 04:55:04;;;;;;;13.63;7.45;;;3.10;90.70;;;;;;4973561;28;20047;-52
2021/01/06 04:58:13;;;;;;;12.50;6.95;;;3.00;90.70;;;;;;4975375;28;20094;-52
2021/01/06 05:00:39;;;;;;;12.60;6.75;;;3.10;90.70;;;;;;4955002;28;20051;-50
2021/01/06 05:03:14;;;;;;;14.73;7.18;;;3.00;90.70;;;;;;4972493;28;20097;-52
2021/01/06 05:06:14;;;;;;;14.27;7.85;;;3.00;90.80;;;;;;4988486;28;20050;-48
2021/01/06 05:08:44;;;;;;;14.68;6.50;;;3.00;90.80;;;;;;4962969;28;20038;-50
2021/01/06 05:11:34;;;;;;;12.68;7.65;;;3.00;90.80;;;;;;4973479;28;20635;-52
2021/01/06 05:14:05;;;;;;;15.07;8.10;;;3.00;90.60;;;;;;4964270;28;20035;-47
2021/01/06 05:16:36;;;;;;;15.45;8.75;;;3.00;90.90;;;;;;4973752;28;20423;-48
2021/01/06 05:19:06;;;;;;;15.48;7.43;;;2.90;90.90;;;;;;4972379;28;20050;-51
2021/01/06 05:21:33;;;;;;;17.83;7.45;;;3.00;90.60;;;;;;4974059;28;20084;-52
2021/01/06 05:24:40;;;;;;;15.25;7.85;;;3.00;90.60;;;;;;4973360;28;20070;-53
2021/01/06 05:27:17;;;;;;;17.25;8.95;;;2.90;90.60;;;;;;4973657;28;20081;-54
2021/01/06 05:29:44;;;;;;;16.42;7.50;;;2.80;90.90;;;;;;4974232;28;20038;-53
2021/01/06 05:32:33;;;;;;;16.60;8.05;;;3.10;89.80;;;;;;4973941;28;20043;-54
2021/01/06 05:35:03;;;;;;;16.08;7.93;;;2.90;90.30;;;;;;4970875;28;20403;-49
2021/01/06 05:37:33;;;;;;;16.48;8.30;;;2.80;90.70;;;;;;4974026;28;20037;-50
2021/01/06 05:40:10;;;;;;;15.90;7.50;;;2.90;90.50;;;;;;4956839;28;20093;-48
2021/01/06 05:42:48;;;;;;;16.42;8.45;;;2.80;90.70;;;;;;4972338;28;20058;-49
2021/01/06 05:45:16;;;;;;;16.73;7.82;;;2.80;90.70;;;;;;4973184;28;20118;-48
2021/01/06 05:47:57;;;;;;;15.90;8.85;;;2.80;90.80;;;;;;4971289;28;20475;-54
2021/01/06 05:50:33;;;;;;;13.90;7.75;;;2.80;90.80;;;;;;4971985;28;20046;-52
2021/01/06 05:53:37;;;;;;;14.90;8.57;;;2.80;90.50;;;;;;4973001;28;20038;-51
2021/01/06 05:56:24;;;;;;;;;;;2.80;90.60;;;;;;4969329;28;20099;-51
2021/01/06 05:58:56;;;;;;;16.20;8.50;;;3.00;90.00;;;;;;4971176;28;20370;-51
2021/01/06 06:01:34;;;;;;;17.75;8.40;;;3.00;90.00;;;;;;4960014;28;20551;-47
2021/01/06 06:04:22;;;;;;;14.77;8.00;;;2.90;90.20;;;;;;4972648;28;20050;-49
2021/01/06 06:06:57;;;;;;;15.15;8.15;;;2.90;90.20;;;;;;4971995;28;20047;-53
2021/01/06 06:09:38;;;;;;;14.48;7.72;;;3.00;90.10;;;;;;4973134;28;20483;-47
2021/01/06 06:12:35;;;;;;;19.00;8.93;;;2.90;90.00;;;;;;4986285;28;20043;-54
2021/01/06 06:15:19;;;;;;;14.55;7.82;;;2.90;90.10;;;;;;4972953;28;20039;-49
2021/01/06 06:17:57;;;;;;;14.10;7.60;;;2.90;90.00;;;;;;4972039;28;20115;-50
2021/01/06 06:20:40;;;;;;;12.57;7.28;;;2.80;90.30;;;;;;4973013;28;20047;-48
2021/01/06 06:23:30;;;;;;;17.27;7.55;;;2.70;90.50;;;;;;4971926;28;20093;-48
2021/01/06 06:26:02;;;;;;;11.77;7.00;;;2.70;90.60;;;;;;4970844;28;20554;-49
2021/01/06 06:28:49;;;;;;;15.13;6.68;;;2.70;90.70;;;;;;4970501;28;20051;-54
2021/01/06 06:31:29;;;;;;;12.23;6.78;;;2.70;90.80;;;;;;4958957;28;20101;-52
2021/01/06 06:33:58;;;;;;;15.80;7.07;;;2.80;90.40;;;;;;4968877;28;20074;-52
2021/01/06 06:36:29;;;;;;;15.07;6.63;;;2.70;90.60;;;;;;4955373;28;20074;-50
2021/01/06 06:39:13;;;;;;;13.43;7.00;;;2.60;90.80;;;;;;4971243;28;20054;-51
2021/01/06 06:41:43;;;;;;;13.35;6.82;;;2.60;90.80;;;;;;4971043;28;20039;-50
2021/01/06 06:44:20;;;;;;;13.27;6.47;;;2.60;91.00;;;;;;4971838;28;20146;-53
2021/01/06 06:46:46;;;;;;;14.35;7.10;;;2.60;90.90;;;;;;4971346;28;20101;-51
2021/01/06 06:49:17;;;;;;;13.32;6.70;;;2.50;91.00;;;;;;4971857;28;20047;-49
2021/01/06 06:52:04;;;;;;;13.48;7.10;;;2.50;91.20;;;;;;4972186;28;20499;-49
2021/01/06 06:54:44;;;;;;;14.98;6.15;;;2.50;91.20;;;;;;4972274;28;20443;-48
2021/01/06 06:57:17;;;;;;;11.52;6.55;;;2.40;91.30;;;;;;4971454;28;20039;-47
2021/01/06 07:00:03;;;;;;;15.30;7.55;;;2.40;91.50;;;;;;4970821;28;20047;-53
2021/01/06 07:02:28;;;;;;;13.75;7.03;;;2.40;91.70;;;;;;4972569;28;20042;-53
2021/01/06 07:04:59;;;;;;;13.10;7.03;;;2.40;91.50;;;;;;4958750;28;20043;-51
2021/01/06 07:07:40;;;;;;;12.48;6.57;;;2.30;91.60;;;;;;4971210;28;20034;-50
2021/01/06 07:10:30;;;;;;;18.90;6.53;;;2.30;91.80;;;;;;4973100;28;20054;-50
2021/01/06 07:13:05;;;;;;;13.88;6.72;;;2.30;91.80;;;;;;4968798;28;20049;-54
2021/01/06 07:15:39;;;;;;;14.55;6.20;;;2.30;91.90;;;;;;4971652;28;20058;-51
2021/01/06 07:18:25;;;;;;;13.43;6.50;;;2.40;91.80;;;;;;4970041;28;20043;-51
2021/01/06 07:21:14;;;;;;;13.02;6.32;;;2.30;91.90;;;;;;4971127;28;20034;-50
2021/01/06 07:24:07;;;;;;;12.50;5.90;;;2.30;91.90;;;;;;4972303;28;20038;-51
2021/01/06 07:26:54;;;;;;;15.32;7.35;;;2.30;92.00;;;;;;4972625;28;20193;-51
2021/01/06 07:29:23;;;;;;;13.68;6.50;;;2.40;91.90;;;;;;4973340;28;20042;-50
2021/01/06 07:32:10;;;;;;;14.07;6.13;;;2.50;91.80;;;;;;4972082;28;20058;-51
2021/01/06 07:34:58;;;;;;;11.80;5.70;;;2.40;91.70;;;;;;4968682;28;20522;-52
2021/01/06 07:37:36;;;;;;;14.85;6.00;;;2.50;91.40;;;;;;4987378;28;20484;-53
2021/01/06 07:40:32;;;;;;;11.50;5.65;;;2.50;91.30;;;;;;4972445;28;20467;-52
2021/01/06 07:43:07;;;;;;;11.88;4.70;;;2.50;91.50;;;;;;4972089;28;20039;-50
2021/01/06 07:45:40;;;;;;;12.95;5.78;;;2.60;91.40;;;;;;4972195;28;20042;-48
2021/01/06 07:48:15;;;;;;;11.35;5.60;;;2.50;91.50;;;;;;4970353;28;20039;-50
2021/01/06 07:51:01;;;;;;;11.32;4.88;;;2.50;91.60;;;;;;4973128;28;20125;-52
2021/01/06 07:53:43;;;;;;;12.25;4.75;;;2.40;91.60;;;;;;4958226;28;20050;-49
2021/01/06 07:56:54;;;;;;;12.32;5.10;;;2.60;91.40;;;;;;4977178;28;20043;-53
2021/01/06 07:59:46;;;;;;;11.15;4.90;;;2.50;91.50;;;;;;4971004;28;20058;-50
2021/01/06 08:02:37;;;;;;;14.73;5.00;;;2.50;91.60;;;;;;4975997;28;20197;-49
2021/01/06 08:05:22;;;;;;;10.35;5.00;;;2.50;91.60;;;;;;4973855;28;20051;-47
2021/01/06 08:07:48;;;;;;;12.18;5.20;;;2.40;91.70;;;;;;4979056;28;20042;-50
2021/01/06 08:10:24;;;;;;;11.95;5.53;;;2.40;91.80;;;;;;4978070;28;20102;-49
2021/01/06 08:12:51;;;;;;;12.27;5.60;;;2.40;91.80;;;;;;4973776;28;20046;-52
2021/01/06 08:15:24;;;;;;;14.52;5.70;;;2.40;91.80;;;;;;4974049;28;20587;-51
2021/01/06 08:18:10;;;;;;;10.43;5.60;;;2.40;91.90;;;;;;4973208;28;20042;-52
2021/01/06 08:21:13;;;;;;;11.90;5.40;;;2.50;91.90;;;;;;4979470;28;20066;-53
2021/01/06 08:24:12;;;;;;;10.63;5.55;;;2.50;91.90;;;;;;4964498;28;20119;-55
2021/01/06 08:26:47;;;;;;;10.93;5.38;;;2.60;91.70;;;;;;4971220;28;20139;-53
2021/01/06 08:29:22;;;;;;;15.55;5.78;;;2.50;91.80;;;;;;4970637;28;20038;-53
2021/01/06 08:32:12;;;;;;;12.38;5.38;;;2.60;91.50;;;;;;4966884;28;20042;-54
2021/01/06 08:34:40;;;;;;;12.35;5.32;;;2.60;91.60;;;;;;4966728;28;20377;-51
2021/01/06 08:37:21;;;;;;;15.23;7.15;;;2.50;91.60;;;;;;4967228;28;20042;-52
2021/01/06 08:39:51;;;;;;;13.57;5.07;;;2.60;91.70;;;;;;4968403;28;20046;-54
2021/01/06 08:42:26;;;;;;;10.57;5.00;;;2.60;91.60;;;;;;4970766;28;20043;-54
2021/01/06 08:45:00;;;;;;;17.67;7.30;;;2.60;91.70;;;;;;4971617;28;20133;-54
2021/01/06 08:47:32;;;;;;;14.38;7.72;;;2.60;91.70;;;;;;4974133;28;20039;-53
2021/01/06 08:50:14;;;;;;;12.32;5.57;;;2.60;91.70;;;;;;4962665;28;20081;-51
2021/01/06 08:52:40;;;;;;;9.18;5.38;;;2.60;91.70;;;;;;4972231;28;20534;-52
2021/01/06 08:55:20;;;;;;;14.27;4.88;;;2.60;91.90;;;;;;4973546;28;20118;-53
2021/01/06 08:58:06;;;;;;;10.95;4.63;;;2.60;91.60;;;;;;4973506;28;20529;-53
2021/01/06 09:00:50;;;;;;;11.32;5.22;;;2.60;91.60;;;;;;4968577;28;20051;-49
2021/01/06 09:03:38;;;;;;;8.38;4.68;;;2.60;91.70;;;;;;4971762;28;20046;-50
2021/01/06 09:06:11;;;;;;;12.10;4.40;;;2.60;91.70;;;;;;4968324;28;20050;-51
2021/01/06 09:08:36;;;;;;;10.75;4.28;;;2.60;91.70;;;;;;4967379;28;20030;-51
2021/01/06 09:11:13;;;;;;;11.68;4.57;;;2.60;91.70;;;;;;4972340;28;20043;-52
2021/01/06 09:14:18;;;;;;;10.60;4.10;;;2.60;91.80;;;;;;4971804;28;20194;-51
2021/01/06 09:16:53;;;;;;;10.98;5.10;;;2.60;91.80;;;;;;4941705;28;20130;-50
2021/01/06 09:19:32;;;;;;;14.13;5.38;;;2.60;91.80;;;;;;4980197;28;20050;-55
2021/01/06 09:21:59;;;;;;;15.73;6.43;;;2.60;91.90;;;;;;4973349;28;20460;-53
2021/01/06 09:24:32;;;;;;;12.93;6.68;;;2.70;91.80;;;;;;4972485;28;20050;-50
2021/01/06 09:27:03;;;;;;;11.35;4.82;;;2.70;91.80;;;;;;4972711;28;20130;-51
2021/01/06 09:29:34;;;;;;;15.02;9.18;;;2.70;91.80;;;;;;4972490;28;20066;-51
2021/01/06 09:32:04;;;;;;;11.57;7.90;;;2.70;91.80;;;;;;4977043;28;20051;-54
2021/01/06 09:34:36;;;;;;;15.57;7.82;;;2.70;91.80;;;;;;4972873;28;20054;-49
2021/01/06 09:37:03;;;;;;;13.32;6.18;;;2.70;91.80;;;;;;4972153;28;20043;-49
2021/01/06 09:39:32;;;;;;;18.60;9.45;;;2.80;91.70;;;;;;4972521;28;20038;-53
2021/01/06 09:42:00;;;;;;;14.02;8.63;;;2.80;91.70;;;;;;4972471;28;20070;-52
2021/01/06 09:44:29;;;;;;;14.20;6.75;;;2.80;91.80;;;;;;4957298;28;20041;-50
2021/01/06 09:47:06;;;;;;;11.70;4.90;;;2.80;91.60;;;;;;4970005;28;20193;-51
2021/01/06 09:49:39;;;;;;;12.35;7.03;;;2.80;91.70;;;;;;4971273;28;20049;-50
2021/01/06 09:52:17;;;;;;;14.15;8.10;;;2.70;91.60;;;;;;4976001;28;20047;-54
2021/01/06 09:54:43;;;;;;;13.35;10.07;;;2.80;91.70;;;;;;4971931;28;20034;-53
2021/01/06 09:57:15;;;;;;;10.18;6.22;;;2.80;91.70;;;;;;4974465;28;20104;-53
2021/01/06 09:59:41;;;;;;;12.23;6.90;;;2.70;91.50;;;;;;4977225;28;20054;-51
2021/01/06 10:02:17;;;;;;;11.02;5.32;;;2.70;91.50;;;;;;4973981;28;20202;-52
2021/01/06 10:04:45;;;;;;;13.45;7.80;;;2.70;91.60;;;;;;4975167;28;20114;-53
2021/01/06 10:07:12;;;;;;;9.35;4.38;;;2.70;91.70;;;;;;4976743;28;20118;-53
2021/01/06 10:09:47;;;;;;;9.77;5.50;;;2.70;91.60;;;;;;4974221;28;20126;-52
2021/01/06 10:12:45;;;;;;;13.85;6.90;;;2.80;91.60;;;;;;4969441;28;20130;-52
2021/01/06 10:15:33;;;;;;;14.52;7.10;;;2.90;91.40;;;;;;4967893;28;20047;-52
2021/01/06 10:18:16;;;;;;;13.90;7.35;;;2.90;91.40;;;;;;4973738;28;20137;-53
2021/01/06 10:20:52;;;;;;;9.77;4.15;;;2.90;91.30;;;;;;4974262;28;20054;-51
2021/01/06 10:23:48;;;;;;;12.13;3.70;;;2.90;91.30;;;;;;4966843;28;20082;-52
2021/01/06 10:26:40;;;;;;;10.77;3.58;;;2.80;91.40;;;;;;4972753;28;20050;-52
2021/01/06 10:29:19;;;;;;;12.80;3.83;;;2.80;91.40;;;;;;4971682;28;20046;-52
2021/01/06 10:32:05;;;;;;;12.52;3.83;;;2.80;91.40;;;;;;4975255;28;20077;-50
2021/01/06 10:34:33;;;;;;;8.75;3.90;;;2.80;91.40;;;;;;4987271;28;20050;-48
2021/01/06 10:37:05;;;;;;;9.52;3.70;;;3.20;91.60;;;;;;4974653;28;20047;-50
2021/01/06 10:39:37;;;;;;;7.53;3.60;;;2.90;91.40;;;;;;4975105;28;20050;-49
2021/01/06 10:42:07;;;;;;;8.77;3.63;;;2.90;91.30;;;;;;4971841;28;20034;-51
2021/01/06 10:44:36;;;;;;;10.73;4.30;;;2.90;91.10;;;;;;4975647;28;20030;-49
2021/01/06 10:47:25;;;;;;;10.23;3.75;;;2.90;91.30;;;;;;4972913;28;20050;-48
2021/01/06 10:49:54;;;;;;;9.00;3.63;;;3.00;91.00;;;;;;4973017;28;20078;-53
2021/01/06 10:52:22;;;;;;;11.40;4.05;;;3.00;91.20;;;;;;4977443;28;20336;-52
2021/01/06 10:54:54;;;;;;;9.48;3.75;;;3.00;91.30;;;;;;4972563;28;20047;-49
2021/01/06 10:57:23;;;;;;;11.68;3.80;;;3.00;91.20;;;;;;4973423;28;20042;-49
2021/01/06 11:00:17;;;;;;;10.02;3.97;;;3.00;91.20;;;;;;4973576;28;20130;-50
2021/01/06 11:02:57;;;;;;;10.73;4.07;;;3.10;90.70;;;;;;4972198;28;20093;-50
2021/01/06 11:05:33;;;;;;;12.48;4.72;;;3.10;91.00;;;;;;4975534;28;20046;-49
2021/01/06 11:08:33;;;;;;;10.68;3.80;;;3.10;91.10;;;;;;4961641;28;20082;-58
2021/01/06 11:11:23;;;;;;;9.43;4.82;;;3.10;91.10;;;;;;4965136;28;20046;-53
2021/01/06 11:14:28;;;;;;;9.77;4.00;;;3.10;91.20;;;;;;4970409;28;20515;-51
2021/01/06 11:17:23;;;;;;;10.88;4.15;;;3.10;91.20;;;;;;4967866;28;20031;-49
2021/01/06 11:20:16;;;;;;;11.15;4.53;;;3.10;91.10;;;;;;4969287;28;20292;-48
2021/01/06 11:22:45;;;;;;;9.32;4.57;;;3.10;91.40;;;;;;4961309;28;20129;-48
2021/01/06 11:25:38;;;;;;;12.05;4.60;;;3.10;91.00;;;;;;4961776;28;20043;-52
2021/01/06 11:28:04;;;;;;;12.70;5.40;;;3.10;90.90;;;;;;4981740;28;20069;-52
2021/01/06 11:31:00;;;;;;;9.40;5.13;;;3.10;90.90;;;;;;4976898;28;20077;-53
2021/01/06 11:33:29;;;;;;;10.40;4.32;;;3.10;91.00;;;;;;4992397;28;20038;-52
2021/01/06 11:36:07;;;;;;;10.60;4.15;;;3.10;91.00;;;;;;4976470;28;20039;-52
2021/01/06 11:38:42;;;;;;;9.07;4.85;;;3.10;91.10;;;;;;4978413;28;20113;-53
2021/01/06 11:41:15;;;;;;;8.43;4.05;;;3.00;91.00;;;;;;4974793;28;20348;-48
2021/01/06 11:44:05;;;;;;;7.72;4.07;;;3.10;91.20;;;;;;4978944;28;20273;-49
2021/01/06 11:46:31;;;;;;;11.00;4.65;;;3.00;91.00;;;;;;4976541;28;20047;-49
2021/01/06 11:49:11;;;;;;;10.45;5.03;;;3.10;90.90;;;;;;4975453;28;20050;-48
2021/01/06 11:51:39;;;;;;;11.00;5.68;;;3.00;90.90;;;;;;4977737;28;20042;-51
2021/01/06 11:54:24;;;;;;;9.23;4.07;;;3.00;90.90;;;;;;4975433;28;20051;-48
2021/01/06 11:57:01;;;;;;;10.00;4.10;;;3.10;91.00;;;;;;4978366;28;20043;-51
2021/01/06 11:59:40;;;;;;;7.75;3.72;;;3.10;91.00;;;;;;4991670;28;20042;-49
2021/01/06 12:02:28;;;;;;;9.23;4.30;;;3.10;91.00;;;;;;4975082;28;20050;-52
2021/01/06 12:05:17;;;;;;;8.55;5.20;;;3.10;91.00;;;;;;4973667;28;20412;-50
2021/01/06 12:08:01;;;;;;;9.90;4.05;;;3.10;91.10;;;;;;4973539;28;20050;-50
2021/01/06 12:10:45;;;;;;;12.52;4.30;;;3.10;90.70;;;;;;4975212;28;20102;-55
2021/01/06 12:13:32;;;;;;;8.35;4.00;;;3.10;90.90;;;;;;4971274;28;20031;-52
2021/01/06 12:16:13;;;;;;;8.52;4.00;;;3.20;91.10;;;;;;4975468;28;20039;-51
2021/01/06 12:19:08;;;;;;;8.45;3.67;;;3.20;90.90;;;;;;4958353;28;20062;-51
2021/01/06 12:21:33;;;;;;;;;;;3.20;91.00;;;;;;4972619;28;20539;-52
2021/01/06 12:24:20;;;;;;;10.32;4.43;;;3.20;91.00;;;;;;4974767;28;19926;-54
2021/01/06 12:27:08;;;;;;;8.55;3.50;;;3.20;90.80;;;;;;4973531;28;20491;-52
2021/01/06 12:29:48;;;;;;;10.63;3.80;;;3.20;91.00;;;;;;4972174;28;20122;-54
2021/01/06 12:32:25;;;;;;;6.82;3.60;;;3.20;90.70;;;;;;4969621;28;20046;-51
2021/01/06 12:35:04;;;;;;;9.23;3.72;;;3.20;90.70;;;;;;4971050;28;20129;-52
2021/01/06 12:37:31;;;;;;;8.95;3.38;;;3.20;90.70;;;;;;4972610;28;20439;-52
2021/01/06 12:40:12;;;;;;;9.32;3.70;;;3.10;90.80;;;;;;4973975;28;20043;-51
2021/01/06 12:43:00;;;;;;;5.97;3.45;;;3.10;90.80;;;;;;4973308;28;20118;-54
2021/01/06 12:45:41;;;;;;;15.13;6.78;;;3.10;90.70;;;;;;4975005;28;20038;-52
2021/01/06 12:48:16;;;;;;;9.80;3.85;;;3.10;90.90;;;;;;4970771;28;20400;-50
2021/01/06 12:51:08;;;;;;;9.43;3.70;;;3.20;90.90;;;;;;4975461;28;20046;-55
2021/01/06 12:53:42;;;;;;;8.18;3.45;;;3.10;90.80;;;;;;4969116;28;20046;-52
2021/01/06 12:56:23;;;;;;;9.48;4.10;;;3.10;91.00;;;;;;4972902;28;20425;-56
2021/01/06 12:59:04;;;;;;;9.50;3.88;;;3.10;91.00;;;;;;4972521;28;20047;-52
2021/01/06 13:02:06;;;;;;;8.73;3.65;;;3.10;90.90;;;;;;4971296;28;20077;-57
2021/01/06 13:04:38;;;;;;;8.32;3.50;;;3.10;90.90;;;;;;4951494;28;20049;-49
2021/01/06 13:07:21;;;;;;;6.57;3.23;;;3.10;91.10;;;;;;4974672;28;20054;-50
2021/01/06 13:10:05;;;;;;;8.07;3.80;;;3.00;91.10;;;;;;4972461;28;20302;-49
2021/01/06 13:13:02;;;;;;;8.85;3.85;;;3.00;91.20;;;;;;4965049;28;20054;-53
2021/01/06 13:15:36;;;;;;;11.15;3.70;;;3.00;91.30;;;;;;4968811;28;20026;-52
2021/01/06 13:18:18;;;;;;;10.25;3.25;;;3.00;91.40;;;;;;4967995;28;20533;-49
2021/01/06 13:20:46;;;;;;;7.32;3.53;;;3.00;91.40;;;;;;4972446;28;20053;-52
2021/01/06 13:23:24;;;;;;;8.50;3.72;;;3.00;91.40;;;;;;4968481;28;20038;-48
2021/01/06 13:26:00;;;;;;;8.10;3.85;;;3.10;91.40;;;;;;4972217;28;20118;-49
2021/01/06 13:28:33;;;;;;;8.65;3.80;;;3.10;91.40;;;;;;4985769;28;20408;-49
2021/01/06 13:31:32;;;;;;;7.88;3.72;;;3.10;91.10;;;;;;4973815;28;20062;-52
2021/01/06 13:34:28;;;;;;;7.07;3.60;;;3.00;91.10;;;;;;4971668;28;20054;-51
2021/01/06 13:37:03;;;;;;;10.95;4.72;;;3.00;91.20;;;;;;4973716;28;20141;-51
2021/01/06 13:39:41;;;;;;;10.38;3.97;;;3.00;91.50;;;;;;4968894;28;20034;-53
2021/01/06 13:44:47;;;;;;;8.27;3.38;;;3.00;91.30;;;;;;5251214;23;20038;-49